tititudorancea.com
Station Historical Data
Daily Summary for February 15, 2018 Units:  Both    English   Metric
« Previous Day
Next Day »
Daily Weekly Monthly Yearly Custom
  High: Low: Average:
Temperature: TemperatureF °F /  -17.8 °C 50.9 °F /  10.5 °C 61.3 °F /  16.3 °C
Dew Point: DewpointF °F /  -17.8 °C 39.6 °F /  4.2 °C 46.5 °F /  8.1 °C
Humidity: Humidity % 41 % 59 %
Wind Speed: WindSpeedMPH mph /  0 km/h - 4.4 mph /  7.1 km/h
Wind Gust: WindSpeedGustMPH mph /  0 km/h - -
Wind:- - West
Pressure: PressureIn in /  0 hPa 29.85 in /  1010.7 hPa -
Precipitation: 0.00 in /  0 mm    
Historical Graphs
 
 
Ararat weather Find more about Weather in Ararat, AU


 



 


Tabular Data for February 15, 2018
Time Temperature Dew Point Pressure Wind Wind Speed Wind Gust Humidity Rainfall Rate (Hourly)
TemperatureF °F /  -17.8 °C DewpointF °F /  -17.8 °C PressureIn in /  0 hPa Calm     Humidity % HourlyPrecipIn in /  0 mm
00:01 56.2 °F /  13.4 °C 41.6 °F /  5.3 °C 29.93 in /  1013.4 hPa SSW 0.7 mph /  1.1 km/h 2.3 mph /  3.7 km/h 58 % 0.00 in /  0 mm
00:06 55.5 °F /  13.1 °C 40.5 °F /  4.7 °C 29.93 in /  1013.4 hPa SSW 1.8 mph /  2.9 km/h 3.5 mph /  5.6 km/h 57 % 0.00 in /  0 mm
00:11 54.3 °F /  12.4 °C 40.3 °F /  4.6 °C 29.93 in /  1013.4 hPa SSW 0.3 mph /  0.5 km/h 2.3 mph /  3.7 km/h 59 % 0.00 in /  0 mm
00:16 53.4 °F /  11.9 °C 39.9 °F /  4.4 °C 29.94 in /  1013.8 hPa Calm     60 % 0.00 in /  0 mm
00:21 52.8 °F /  11.6 °C 39.7 °F /  4.3 °C 29.94 in /  1013.8 hPa Calm     61 % 0.00 in /  0 mm
00:26 52.2 °F /  11.2 °C 39.6 °F /  4.2 °C 29.94 in /  1013.8 hPa Calm     62 % 0.00 in /  0 mm
00:31 51.7 °F /  10.9 °C 39.9 °F /  4.4 °C 29.94 in /  1013.8 hPa Calm     64 % 0.00 in /  0 mm
00:36 51.3 °F /  10.7 °C 39.9 °F /  4.4 °C 29.94 in /  1013.8 hPa Calm     65 % 0.00 in /  0 mm
00:41 50.9 °F /  10.5 °C 40.3 °F /  4.6 °C 29.94 in /  1013.8 hPa Calm     67 % 0.00 in /  0 mm
00:46 51.4 °F /  10.8 °C 41.2 °F /  5.1 °C 29.94 in /  1013.8 hPa SSW 3.4 mph /  5.5 km/h 5.8 mph /  9.3 km/h 68 % 0.00 in /  0 mm
00:51 52.8 °F /  11.6 °C 42.1 °F /  5.6 °C 29.94 in /  1013.8 hPa SW 3.1 mph /  5 km/h 7.0 mph /  11.3 km/h 67 % 0.00 in /  0 mm
00:56 54.1 °F /  12.3 °C 42.6 °F /  5.9 °C 29.94 in /  1013.8 hPa SW 5.6 mph /  9 km/h 8.1 mph /  13 km/h 65 % 0.00 in /  0 mm
01:01 54.9 °F /  12.7 °C 42.5 °F /  5.8 °C 29.94 in /  1013.8 hPa SW 4.6 mph /  7.4 km/h 8.1 mph /  13 km/h 63 % 0.00 in /  0 mm
01:06 55.2 °F /  12.9 °C 42.4 °F /  5.8 °C 29.94 in /  1013.8 hPa SW 5.0 mph /  8 km/h 6.9 mph /  11.1 km/h 62 % 0.00 in /  0 mm
01:11 55.2 °F /  12.9 °C 42.4 °F /  5.8 °C 29.94 in /  1013.8 hPa SW 4.2 mph /  6.8 km/h 10.4 mph /  16.7 km/h 62 % 0.00 in /  0 mm
01:16 55.2 °F /  12.9 °C 42.4 °F /  5.8 °C 29.94 in /  1013.8 hPa SW 5.5 mph /  8.9 km/h 8.1 mph /  13 km/h 62 % 0.00 in /  0 mm
01:21 55.2 °F /  12.9 °C 42.4 °F /  5.8 °C 29.94 in /  1013.8 hPa SW 2.9 mph /  4.7 km/h 3.5 mph /  5.6 km/h 62 % 0.00 in /  0 mm
01:26 55.2 °F /  12.9 °C 42.4 °F /  5.8 °C 29.94 in /  1013.8 hPa SW 3.9 mph /  6.3 km/h 8.1 mph /  13 km/h 62 % 0.00 in /  0 mm
01:31 55.1 °F /  12.8 °C 42.3 °F /  5.7 °C 29.94 in /  1013.8 hPa SW 4.7 mph /  7.6 km/h 5.8 mph /  9.3 km/h 62 % 0.00 in /  0 mm
01:36 55.1 °F /  12.8 °C 42.3 °F /  5.7 °C 29.94 in /  1013.8 hPa SW 5.7 mph /  9.2 km/h 8.1 mph /  13 km/h 62 % 0.00 in /  0 mm
01:41 55.3 °F /  12.9 °C 42.5 °F /  5.8 °C 29.94 in /  1013.8 hPa SW 6.0 mph /  9.7 km/h 10.4 mph /  16.7 km/h 62 % 0.00 in /  0 mm
01:46 55.5 °F /  13.1 °C 42.7 °F /  5.9 °C 29.94 in /  1013.8 hPa WSW 7.1 mph /  11.4 km/h 9.2 mph /  14.8 km/h 62 % 0.00 in /  0 mm
01:51 55.5 °F /  13.1 °C 43.1 °F /  6.2 °C 29.94 in /  1013.8 hPa WSW 5.8 mph /  9.3 km/h 8.1 mph /  13 km/h 63 % 0.00 in /  0 mm
01:56 55.5 °F /  13.1 °C 43.1 °F /  6.2 °C 29.94 in /  1013.8 hPa WSW 7.3 mph /  11.7 km/h 10.4 mph /  16.7 km/h 63 % 0.00 in /  0 mm
02:01 55.4 °F /  13 °C 43.0 °F /  6.1 °C 29.94 in /  1013.8 hPa WSW 6.2 mph /  10 km/h 9.2 mph /  14.8 km/h 63 % 0.00 in /  0 mm
02:06 55.3 °F /  12.9 °C 43.3 °F /  6.3 °C 29.94 in /  1013.8 hPa North 6.4 mph /  10.3 km/h 15.0 mph /  24.1 km/h 64 % 0.00 in /  0 mm
02:11 55.2 °F /  12.9 °C 43.2 °F /  6.2 °C 29.94 in /  1013.8 hPa WSW 5.8 mph /  9.3 km/h 9.2 mph /  14.8 km/h 64 % 0.00 in /  0 mm
02:16 55.3 °F /  12.9 °C 43.7 °F /  6.5 °C 29.93 in /  1013.4 hPa North 5.1 mph /  8.2 km/h 9.0 mph /  14.5 km/h 65 % 0.00 in /  0 mm
02:21 55.2 °F /  12.9 °C 43.6 °F /  6.4 °C 29.93 in /  1013.4 hPa North 5.4 mph /  8.7 km/h 8.1 mph /  13 km/h 65 % 0.00 in /  0 mm
02:26 55.2 °F /  12.9 °C 44.0 °F /  6.7 °C 29.93 in /  1013.4 hPa WSW 4.1 mph /  6.6 km/h 8.1 mph /  13 km/h 66 % 0.00 in /  0 mm
02:31 55.1 °F /  12.8 °C 43.9 °F /  6.6 °C 29.93 in /  1013.4 hPa North 4.4 mph /  7.1 km/h 6.9 mph /  11.1 km/h 66 % 0.00 in /  0 mm
02:36 55.0 °F /  12.8 °C 44.2 °F /  6.8 °C 29.93 in /  1013.4 hPa WSW 4.7 mph /  7.6 km/h 6.9 mph /  11.1 km/h 67 % 0.00 in /  0 mm
02:41 55.1 °F /  12.8 °C 44.3 °F /  6.8 °C 29.92 in /  1013.1 hPa WSW 2.8 mph /  4.5 km/h 5.0 mph /  8 km/h 67 % 0.00 in /  0 mm
02:46 55.1 °F /  12.8 °C 43.9 °F /  6.6 °C 29.92 in /  1013.1 hPa SW 3.6 mph /  5.8 km/h 5.0 mph /  8 km/h 66 % 0.00 in /  0 mm
02:51 55.0 °F /  12.8 °C 44.2 °F /  6.8 °C 29.92 in /  1013.1 hPa WSW 3.6 mph /  5.8 km/h 4.0 mph /  6.4 km/h 67 % 0.00 in /  0 mm
02:56 54.9 °F /  12.7 °C 44.1 °F /  6.7 °C 29.92 in /  1013.1 hPa SW 3.3 mph /  5.3 km/h 4.6 mph /  7.4 km/h 67 % 0.00 in /  0 mm
03:01 54.7 °F /  12.6 °C 44.0 °F /  6.7 °C 29.92 in /  1013.1 hPa WSW 2.0 mph /  3.2 km/h 3.5 mph /  5.6 km/h 67 % 0.00 in /  0 mm
03:06 54.6 °F /  12.6 °C 43.9 °F /  6.6 °C 29.92 in /  1013.1 hPa North 1.6 mph /  2.6 km/h 2.3 mph /  3.7 km/h 67 % 0.00 in /  0 mm
03:11 54.5 °F /  12.5 °C 43.8 °F /  6.6 °C 29.92 in /  1013.1 hPa Calm     67 % 0.00 in /  0 mm
03:16 54.3 °F /  12.4 °C 44.0 °F /  6.7 °C 29.92 in /  1013.1 hPa Calm     68 % 0.00 in /  0 mm
03:21 54.1 °F /  12.3 °C 43.8 °F /  6.6 °C 29.92 in /  1013.1 hPa Calm     68 % 0.00 in /  0 mm
03:26 54.1 °F /  12.3 °C 44.2 °F /  6.8 °C 29.92 in /  1013.1 hPa Calm     69 % 0.00 in /  0 mm
03:31 54.1 °F /  12.3 °C 44.2 °F /  6.8 °C 29.92 in /  1013.1 hPa WSW 1.7 mph /  2.7 km/h 2.3 mph /  3.7 km/h 69 % 0.00 in /  0 mm
03:36 54.2 °F /  12.3 °C 44.2 °F /  6.8 °C 29.92 in /  1013.1 hPa WSW 1.5 mph /  2.4 km/h 4.0 mph /  6.4 km/h 69 % 0.00 in /  0 mm
03:41 54.7 °F /  12.6 °C 44.0 °F /  6.7 °C 29.92 in /  1013.1 hPa North 3.6 mph /  5.8 km/h 4.6 mph /  7.4 km/h 67 % 0.00 in /  0 mm
03:46 55.2 °F /  12.9 °C 44.0 °F /  6.7 °C 29.91 in /  1012.8 hPa North 2.1 mph /  3.4 km/h 3.5 mph /  5.6 km/h 66 % 0.00 in /  0 mm
03:51 55.4 °F /  13 °C 44.2 °F /  6.8 °C 29.91 in /  1012.8 hPa SW 2.5 mph /  4 km/h 3.5 mph /  5.6 km/h 66 % 0.00 in /  0 mm
03:56 55.6 °F /  13.1 °C 44.0 °F /  6.7 °C 29.91 in /  1012.8 hPa WSW 0.1 mph /  0.2 km/h 1.2 mph /  1.9 km/h 65 % 0.00 in /  0 mm
04:01 55.5 °F /  13.1 °C 43.9 °F /  6.6 °C 29.91 in /  1012.8 hPa Calm     65 % 0.00 in /  0 mm
04:06 55.6 °F /  13.1 °C 44.0 °F /  6.7 °C 29.91 in /  1012.8 hPa SW 2.2 mph /  3.5 km/h 3.5 mph /  5.6 km/h 65 % 0.00 in /  0 mm
04:11 55.6 °F /  13.1 °C 44.0 °F /  6.7 °C 29.91 in /  1012.8 hPa WSW 3.3 mph /  5.3 km/h 3.5 mph /  5.6 km/h 65 % 0.00 in /  0 mm
04:16 55.6 °F /  13.1 °C 44.0 °F /  6.7 °C 29.90 in /  1012.4 hPa WSW 2.1 mph /  3.4 km/h 3.5 mph /  5.6 km/h 65 % 0.00 in /  0 mm
04:21 55.5 °F /  13.1 °C 43.9 °F /  6.6 °C 29.90 in /  1012.4 hPa Calm     65 % 0.00 in /  0 mm
04:26 55.3 °F /  12.9 °C 43.7 °F /  6.5 °C 29.90 in /  1012.4 hPa Calm     65 % 0.00 in /  0 mm
04:31 55.1 °F /  12.8 °C 43.9 °F /  6.6 °C 29.90 in /  1012.4 hPa Calm     66 % 0.00 in /  0 mm
04:36 55.0 °F /  12.8 °C 43.8 °F /  6.6 °C 29.90 in /  1012.4 hPa North 1.3 mph /  2.1 km/h 2.3 mph /  3.7 km/h 66 % 0.00 in /  0 mm
04:41 54.5 °F /  12.5 °C 43.0 °F /  6.1 °C 29.90 in /  1012.4 hPa SW 0.3 mph /  0.5 km/h 2.3 mph /  3.7 km/h 65 % 0.00 in /  0 mm
04:46 53.8 °F /  12.1 °C 43.1 °F /  6.2 °C 29.90 in /  1012.4 hPa WSW 1.7 mph /  2.7 km/h 3.0 mph /  4.8 km/h 67 % 0.00 in /  0 mm
04:51 53.2 °F /  11.8 °C 42.9 °F /  6.1 °C 29.90 in /  1012.4 hPa North 1.1 mph /  1.8 km/h 3.5 mph /  5.6 km/h 68 % 0.00 in /  0 mm
04:56 53.1 °F /  11.7 °C 43.2 °F /  6.2 °C 29.91 in /  1012.8 hPa Calm   2.3 mph /  3.7 km/h 69 % 0.00 in /  0 mm
05:01 53.0 °F /  11.7 °C 43.1 °F /  6.2 °C 29.91 in /  1012.8 hPa Calm     69 % 0.00 in /  0 mm
05:06 52.9 °F /  11.6 °C 43.0 °F /  6.1 °C 29.91 in /  1012.8 hPa North 2.3 mph /  3.7 km/h 3.5 mph /  5.6 km/h 69 % 0.00 in /  0 mm
05:11 52.4 °F /  11.3 °C 42.5 °F /  5.8 °C 29.91 in /  1012.8 hPa WSW 1.6 mph /  2.6 km/h 3.5 mph /  5.6 km/h 69 % 0.00 in /  0 mm
05:16 52.2 °F /  11.2 °C 42.7 °F /  5.9 °C 29.91 in /  1012.8 hPa WSW 1.6 mph /  2.6 km/h 3.5 mph /  5.6 km/h 70 % 0.00 in /  0 mm
05:21 52.2 °F /  11.2 °C 43.1 °F /  6.2 °C 29.90 in /  1012.4 hPa WSW 1.4 mph /  2.3 km/h 2.3 mph /  3.7 km/h 71 % 0.00 in /  0 mm
05:26 52.2 °F /  11.2 °C 43.1 °F /  6.2 °C 29.90 in /  1012.4 hPa WSW 0.7 mph /  1.1 km/h 3.5 mph /  5.6 km/h 71 % 0.00 in /  0 mm
05:31 52.3 °F /  11.3 °C 43.2 °F /  6.2 °C 29.90 in /  1012.4 hPa SW 1.6 mph /  2.6 km/h 2.3 mph /  3.7 km/h 71 % 0.00 in /  0 mm
05:36 52.5 °F /  11.4 °C 43.4 °F /  6.3 °C 29.90 in /  1012.4 hPa North 2.0 mph /  3.2 km/h 4.6 mph /  7.4 km/h 71 % 0.00 in /  0 mm
05:41 52.7 °F /  11.5 °C 43.2 °F /  6.2 °C 29.91 in /  1012.8 hPa WSW 2.9 mph /  4.7 km/h 4.0 mph /  6.4 km/h 70 % 0.00 in /  0 mm
05:46 52.9 °F /  11.6 °C 43.4 °F /  6.3 °C 29.91 in /  1012.8 hPa WSW 3.5 mph /  5.6 km/h 4.0 mph /  6.4 km/h 70 % 0.00 in /  0 mm
05:51 52.8 °F /  11.6 °C 42.9 °F /  6.1 °C 29.91 in /  1012.8 hPa WSW 1.0 mph /  1.6 km/h 2.3 mph /  3.7 km/h 69 % 0.00 in /  0 mm
05:56 52.6 °F /  11.4 °C 42.7 °F /  5.9 °C 29.91 in /  1012.8 hPa WSW 1.5 mph /  2.4 km/h 2.3 mph /  3.7 km/h 69 % 0.00 in /  0 mm
06:01 52.4 °F /  11.3 °C 42.9 °F /  6.1 °C 29.90 in /  1012.4 hPa WSW 1.3 mph /  2.1 km/h 3.5 mph /  5.6 km/h 70 % 0.00 in /  0 mm
06:06 52.1 °F /  11.2 °C 42.6 °F /  5.9 °C 29.91 in /  1012.8 hPa SW 0.9 mph /  1.4 km/h 3.5 mph /  5.6 km/h 70 % 0.00 in /  0 mm
06:11 51.8 °F /  11 °C 42.7 °F /  5.9 °C 29.91 in /  1012.8 hPa WSW 2.1 mph /  3.4 km/h 3.5 mph /  5.6 km/h 71 % 0.00 in /  0 mm
06:16 51.7 °F /  10.9 °C 42.6 °F /  5.9 °C 29.92 in /  1013.1 hPa North 2.5 mph /  4 km/h 3.5 mph /  5.6 km/h 71 % 0.00 in /  0 mm
06:21 51.7 °F /  10.9 °C 42.6 °F /  5.9 °C 29.92 in /  1013.1 hPa WSW 3.0 mph /  4.8 km/h 4.0 mph /  6.4 km/h 71 % 0.00 in /  0 mm
06:26 51.8 °F /  11 °C 43.1 °F /  6.2 °C 29.92 in /  1013.1 hPa WSW 2.9 mph /  4.7 km/h 4.0 mph /  6.4 km/h 72 % 0.00 in /  0 mm
06:31 52.2 °F /  11.2 °C 43.4 °F /  6.3 °C 29.92 in /  1013.1 hPa SW 3.7 mph /  6 km/h 4.6 mph /  7.4 km/h 72 % 0.00 in /  0 mm
06:36 52.6 °F /  11.4 °C 43.8 °F /  6.6 °C 29.92 in /  1013.1 hPa WSW 3.5 mph /  5.6 km/h 4.6 mph /  7.4 km/h 72 % 0.00 in /  0 mm
06:41 52.8 °F /  11.6 °C 44.0 °F /  6.7 °C 29.92 in /  1013.1 hPa WSW 2.4 mph /  3.9 km/h 4.6 mph /  7.4 km/h 72 % 0.00 in /  0 mm
06:46 52.9 °F /  11.6 °C 44.1 °F /  6.7 °C 29.93 in /  1013.4 hPa WSW 2.6 mph /  4.2 km/h 3.5 mph /  5.6 km/h 72 % 0.00 in /  0 mm
06:51 53.0 °F /  11.7 °C 43.8 °F /  6.6 °C 29.92 in /  1013.1 hPa WSW 1.1 mph /  1.8 km/h 2.3 mph /  3.7 km/h 71 % 0.00 in /  0 mm
06:56 52.6 °F /  11.4 °C 43.1 °F /  6.2 °C 29.92 in /  1013.1 hPa WSW 1.4 mph /  2.3 km/h 2.3 mph /  3.7 km/h 70 % 0.00 in /  0 mm
07:01 52.2 °F /  11.2 °C 42.7 °F /  5.9 °C 29.92 in /  1013.1 hPa WSW 1.8 mph /  2.9 km/h 3.5 mph /  5.6 km/h 70 % 0.00 in /  0 mm
07:06 51.7 °F /  10.9 °C 42.6 °F /  5.9 °C 29.93 in /  1013.4 hPa WSW 1.5 mph /  2.4 km/h 2.3 mph /  3.7 km/h 71 % 0.00 in /  0 mm
07:11 51.4 °F /  10.8 °C 42.7 °F /  5.9 °C 29.93 in /  1013.4 hPa SW 1.8 mph /  2.9 km/h 3.5 mph /  5.6 km/h 72 % 0.00 in /  0 mm
07:16 51.3 °F /  10.7 °C 42.9 °F /  6.1 °C 29.93 in /  1013.4 hPa WSW 1.8 mph /  2.9 km/h 3.5 mph /  5.6 km/h 73 % 0.00 in /  0 mm
07:21 51.4 °F /  10.8 °C 43.0 °F /  6.1 °C 29.93 in /  1013.4 hPa WSW 1.5 mph /  2.4 km/h 3.0 mph /  4.8 km/h 73 % 0.00 in /  0 mm
07:26 51.6 °F /  10.9 °C 43.2 °F /  6.2 °C 29.93 in /  1013.4 hPa WSW 1.5 mph /  2.4 km/h 3.5 mph /  5.6 km/h 73 % 0.00 in /  0 mm
07:31 51.9 °F /  11.1 °C 43.5 °F /  6.4 °C 29.93 in /  1013.4 hPa North 1.0 mph /  1.6 km/h 3.5 mph /  5.6 km/h 73 % 0.00 in /  0 mm
07:36 52.2 °F /  11.2 °C 43.8 °F /  6.6 °C 29.93 in /  1013.4 hPa WSW 2.0 mph /  3.2 km/h 3.5 mph /  5.6 km/h 73 % 0.00 in /  0 mm
07:41 52.5 °F /  11.4 °C 44.1 °F /  6.7 °C 29.93 in /  1013.4 hPa North 1.6 mph /  2.6 km/h 3.5 mph /  5.6 km/h 73 % 0.00 in /  0 mm
07:46 52.8 °F /  11.6 °C 44.4 °F /  6.9 °C 29.93 in /  1013.4 hPa North 1.4 mph /  2.3 km/h 3.5 mph /  5.6 km/h 73 % 0.00 in /  0 mm
07:51 53.0 °F /  11.7 °C 44.2 °F /  6.8 °C 29.93 in /  1013.4 hPa WSW 1.1 mph /  1.8 km/h 3.5 mph /  5.6 km/h 72 % 0.00 in /  0 mm
07:56 53.6 °F /  12 °C 44.8 °F /  7.1 °C 29.93 in /  1013.4 hPa North 3.4 mph /  5.5 km/h 6.0 mph /  9.7 km/h 72 % 0.00 in /  0 mm
08:01 54.1 °F /  12.3 °C 44.9 °F /  7.2 °C 29.93 in /  1013.4 hPa WSW 3.5 mph /  5.6 km/h 5.8 mph /  9.3 km/h 71 % 0.00 in /  0 mm
08:06 54.6 °F /  12.6 °C 45.0 °F /  7.2 °C 29.93 in /  1013.4 hPa North 3.7 mph /  6 km/h 6.9 mph /  11.1 km/h 70 % 0.00 in /  0 mm
08:11 55.0 °F /  12.8 °C 45.4 °F /  7.4 °C 29.93 in /  1013.4 hPa WSW 2.8 mph /  4.5 km/h 4.6 mph /  7.4 km/h 70 % 0.00 in /  0 mm
08:16 55.4 °F /  13 °C 45.4 °F /  7.4 °C 29.93 in /  1013.4 hPa WSW 4.8 mph /  7.7 km/h 5.0 mph /  8 km/h 69 % 0.00 in /  0 mm
08:21 55.7 °F /  13.2 °C 45.3 °F /  7.4 °C 29.93 in /  1013.4 hPa WSW 3.4 mph /  5.5 km/h 3.5 mph /  5.6 km/h 68 % 0.00 in /  0 mm
08:26 56.3 °F /  13.5 °C 45.5 °F /  7.5 °C 29.93 in /  1013.4 hPa West 4.0 mph /  6.4 km/h 6.9 mph /  11.1 km/h 67 % 0.00 in /  0 mm
08:31 56.8 °F /  13.8 °C 45.6 °F /  7.6 °C 29.93 in /  1013.4 hPa West 4.4 mph /  7.1 km/h 6.9 mph /  11.1 km/h 66 % 0.00 in /  0 mm
08:36 57.1 °F /  13.9 °C 45.4 °F /  7.4 °C 29.93 in /  1013.4 hPa North 3.1 mph /  5 km/h 6.9 mph /  11.1 km/h 65 % 0.00 in /  0 mm
08:41 57.5 °F /  14.2 °C 45.8 °F /  7.7 °C 29.93 in /  1013.4 hPa West 3.5 mph /  5.6 km/h 4.6 mph /  7.4 km/h 65 % 0.00 in /  0 mm
08:46 58.0 °F /  14.4 °C 45.9 °F /  7.7 °C 29.93 in /  1013.4 hPa West 4.6 mph /  7.4 km/h 4.6 mph /  7.4 km/h 64 % 0.00 in /  0 mm
08:51 58.5 °F /  14.7 °C 45.9 °F /  7.7 °C 29.93 in /  1013.4 hPa West 2.0 mph /  3.2 km/h 4.6 mph /  7.4 km/h 63 % 0.00 in /  0 mm
08:56 59.0 °F /  15 °C 46.0 °F /  7.8 °C 29.93 in /  1013.4 hPa NW 5.9 mph /  9.5 km/h 8.1 mph /  13 km/h 62 % 0.00 in /  0 mm
09:01 59.1 °F /  15.1 °C 46.1 °F /  7.8 °C 29.93 in /  1013.4 hPa NNW 4.1 mph /  6.6 km/h 10.4 mph /  16.7 km/h 62 % 0.00 in /  0 mm
09:07 59.3 °F /  15.2 °C 46.3 °F /  7.9 °C 29.93 in /  1013.4 hPa NNW 3.3 mph /  5.3 km/h 6.9 mph /  11.1 km/h 62 % 0.00 in /  0 mm
09:11 59.2 °F /  15.1 °C 46.2 °F /  7.9 °C 29.94 in /  1013.8 hPa NNW 2.8 mph /  4.5 km/h 4.0 mph /  6.4 km/h 62 % 0.00 in /  0 mm
09:17 59.2 °F /  15.1 °C 46.2 °F /  7.9 °C 29.94 in /  1013.8 hPa NNW 3.8 mph /  6.1 km/h 7.0 mph /  11.3 km/h 62 % 0.00 in /  0 mm
09:22 59.9 °F /  15.5 °C 46.4 °F /  8 °C 29.94 in /  1013.8 hPa WNW 5.1 mph /  8.2 km/h 9.2 mph /  14.8 km/h 61 % 0.00 in /  0 mm
09:27 60.1 °F /  15.6 °C 46.2 °F /  7.9 °C 29.94 in /  1013.8 hPa North 7.8 mph /  12.6 km/h 10.4 mph /  16.7 km/h 60 % 0.00 in /  0 mm
09:32 60.1 °F /  15.6 °C 46.6 °F /  8.1 °C 29.94 in /  1013.8 hPa West 4.3 mph /  6.9 km/h 6.9 mph /  11.1 km/h 61 % 0.00 in /  0 mm
09:37 60.7 °F /  15.9 °C 46.3 °F /  7.9 °C 29.94 in /  1013.8 hPa North 4.6 mph /  7.4 km/h 4.6 mph /  7.4 km/h 59 % 0.00 in /  0 mm
09:42 61.0 °F /  16.1 °C 45.2 °F /  7.3 °C 29.93 in /  1013.4 hPa West 3.6 mph /  5.8 km/h 4.6 mph /  7.4 km/h 56 % 0.00 in /  0 mm
09:47 60.9 °F /  16.1 °C 46.0 °F /  7.8 °C 29.94 in /  1013.8 hPa West 4.7 mph /  7.6 km/h 5.8 mph /  9.3 km/h 58 % 0.00 in /  0 mm
09:52 61.1 °F /  16.2 °C 45.7 °F /  7.6 °C 29.94 in /  1013.8 hPa West 5.7 mph /  9.2 km/h 6.9 mph /  11.1 km/h 57 % 0.00 in /  0 mm
09:57 61.3 °F /  16.3 °C 45.9 °F /  7.7 °C 29.94 in /  1013.8 hPa West 5.2 mph /  8.4 km/h 8.1 mph /  13 km/h 57 % 0.00 in /  0 mm
10:02 61.0 °F /  16.1 °C 45.7 °F /  7.6 °C 29.94 in /  1013.8 hPa North 2.5 mph /  4 km/h 3.5 mph /  5.6 km/h 57 % 0.00 in /  0 mm
10:07 61.5 °F /  16.4 °C 46.6 °F /  8.1 °C 29.94 in /  1013.8 hPa SSW 2.3 mph /  3.7 km/h 4.6 mph /  7.4 km/h 58 % 0.00 in /  0 mm
10:12 61.7 °F /  16.5 °C 46.3 °F /  7.9 °C 29.94 in /  1013.8 hPa SSW 2.9 mph /  4.7 km/h 4.6 mph /  7.4 km/h 57 % 0.00 in /  0 mm
10:17 61.7 °F /  16.5 °C 46.3 °F /  7.9 °C 29.94 in /  1013.8 hPa SW 4.0 mph /  6.4 km/h 7.0 mph /  11.3 km/h 57 % 0.00 in /  0 mm
10:22 61.8 °F /  16.6 °C 46.4 °F /  8 °C 29.94 in /  1013.8 hPa West 5.7 mph /  9.2 km/h 8.1 mph /  13 km/h 57 % 0.00 in /  0 mm
10:27 61.7 °F /  16.5 °C 45.8 °F /  7.7 °C 29.94 in /  1013.8 hPa West 4.3 mph /  6.9 km/h 6.9 mph /  11.1 km/h 56 % 0.00 in /  0 mm
10:32 61.7 °F /  16.5 °C 46.3 °F /  7.9 °C 29.94 in /  1013.8 hPa WNW 3.1 mph /  5 km/h 8.1 mph /  13 km/h 57 % 0.00 in /  0 mm
10:37 61.9 °F /  16.6 °C 46.0 °F /  7.8 °C 29.94 in /  1013.8 hPa WNW 3.3 mph /  5.3 km/h 5.0 mph /  8 km/h 56 % 0.00 in /  0 mm
10:42 62.2 °F /  16.8 °C 46.3 °F /  7.9 °C 29.94 in /  1013.8 hPa North 4.8 mph /  7.7 km/h 6.9 mph /  11.1 km/h 56 % 0.00 in /  0 mm
10:47 62.4 °F /  16.9 °C 46.5 °F /  8.1 °C 29.94 in /  1013.8 hPa North 4.0 mph /  6.4 km/h 5.8 mph /  9.3 km/h 56 % 0.00 in /  0 mm
10:52 62.5 °F /  16.9 °C 46.6 °F /  8.1 °C 29.94 in /  1013.8 hPa WSW 2.4 mph /  3.9 km/h 4.0 mph /  6.4 km/h 56 % 0.00 in /  0 mm
10:57 62.9 °F /  17.2 °C 46.5 °F /  8.1 °C 29.94 in /  1013.8 hPa West 1.7 mph /  2.7 km/h 6.0 mph /  9.7 km/h 55 % 0.00 in /  0 mm
11:02 63.4 °F /  17.4 °C 46.5 °F /  8.1 °C 29.93 in /  1013.4 hPa West 7.0 mph /  11.3 km/h 10.4 mph /  16.7 km/h 54 % 0.00 in /  0 mm
11:07 63.8 °F /  17.7 °C 47.3 °F /  8.5 °C 29.93 in /  1013.4 hPa North 4.3 mph /  6.9 km/h 6.9 mph /  11.1 km/h 55 % 0.00 in /  0 mm
11:12 64.2 °F /  17.9 °C 46.7 °F /  8.2 °C 29.93 in /  1013.4 hPa WNW 2.8 mph /  4.5 km/h 4.6 mph /  7.4 km/h 53 % 0.00 in /  0 mm
11:17 64.0 °F /  17.8 °C 46.0 °F /  7.8 °C 29.94 in /  1013.8 hPa SW 6.1 mph /  9.8 km/h 9.2 mph /  14.8 km/h 52 % 0.00 in /  0 mm
11:22 63.9 °F /  17.7 °C 46.4 °F /  8 °C 29.94 in /  1013.8 hPa SW 5.3 mph /  8.5 km/h 7.0 mph /  11.3 km/h 53 % 0.00 in /  0 mm
11:27 64.2 °F /  17.9 °C 46.2 °F /  7.9 °C 29.93 in /  1013.4 hPa SW 4.5 mph /  7.2 km/h 6.9 mph /  11.1 km/h 52 % 0.00 in /  0 mm
11:32 64.3 °F /  17.9 °C 46.3 °F /  7.9 °C 29.93 in /  1013.4 hPa SW 4.2 mph /  6.8 km/h 8.1 mph /  13 km/h 52 % 0.00 in /  0 mm
11:37 64.6 °F /  18.1 °C 46.6 °F /  8.1 °C 29.93 in /  1013.4 hPa SSW 3.3 mph /  5.3 km/h 5.8 mph /  9.3 km/h 52 % 0.00 in /  0 mm
11:42 65.1 °F /  18.4 °C 46.5 °F /  8.1 °C 29.93 in /  1013.4 hPa SSW 3.1 mph /  5 km/h 3.5 mph /  5.6 km/h 51 % 0.00 in /  0 mm
11:47 65.2 °F /  18.4 °C 47.1 °F /  8.4 °C 29.93 in /  1013.4 hPa SW 4.6 mph /  7.4 km/h 5.8 mph /  9.3 km/h 52 % 0.00 in /  0 mm
11:52 65.3 °F /  18.5 °C 47.2 °F /  8.4 °C 29.93 in /  1013.4 hPa SW 0.8 mph /  1.3 km/h 1.2 mph /  1.9 km/h 52 % 0.00 in /  0 mm
11:57 65.9 °F /  18.8 °C 46.7 °F /  8.2 °C 29.92 in /  1013.1 hPa WSW 3.1 mph /  5 km/h 3.5 mph /  5.6 km/h 50 % 0.00 in /  0 mm
12:02 66.2 °F /  19 °C 46.5 °F /  8.1 °C 29.92 in /  1013.1 hPa WSW 5.1 mph /  8.2 km/h 6.9 mph /  11.1 km/h 49 % 0.00 in /  0 mm
12:07 67.1 °F /  19.5 °C 46.7 °F /  8.2 °C 29.93 in /  1013.4 hPa WSW 1.2 mph /  1.9 km/h 3.5 mph /  5.6 km/h 48 % 0.00 in /  0 mm
12:12 68.1 °F /  20.1 °C 46.5 °F /  8.1 °C 29.92 in /  1013.1 hPa North 8.4 mph /  13.5 km/h 10.4 mph /  16.7 km/h 46 % 0.00 in /  0 mm
12:17 67.5 °F /  19.7 °C 46.0 °F /  7.8 °C 29.92 in /  1013.1 hPa SW 3.8 mph /  6.1 km/h 5.8 mph /  9.3 km/h 46 % 0.00 in /  0 mm
12:22 67.3 °F /  19.6 °C 46.4 °F /  8 °C 29.92 in /  1013.1 hPa SW 0.9 mph /  1.4 km/h 3.0 mph /  4.8 km/h 47 % 0.00 in /  0 mm
12:27 67.4 °F /  19.7 °C 45.9 °F /  7.7 °C 29.92 in /  1013.1 hPa SW 5.4 mph /  8.7 km/h 10.4 mph /  16.7 km/h 46 % 0.00 in /  0 mm
12:32 67.2 °F /  19.6 °C 46.3 °F /  7.9 °C 29.92 in /  1013.1 hPa SW 5.0 mph /  8 km/h 6.0 mph /  9.7 km/h 47 % 0.00 in /  0 mm
12:37 66.9 °F /  19.4 °C 46.0 °F /  7.8 °C 29.91 in /  1012.8 hPa SW 3.0 mph /  4.8 km/h 6.9 mph /  11.1 km/h 47 % 0.00 in /  0 mm
12:42 67.4 °F /  19.7 °C 45.3 °F /  7.4 °C 29.92 in /  1013.1 hPa West 3.5 mph /  5.6 km/h 10.4 mph /  16.7 km/h 45 % 0.00 in /  0 mm
12:47 67.5 °F /  19.7 °C 45.4 °F /  7.4 °C 29.92 in /  1013.1 hPa WSW 6.5 mph /  10.5 km/h 8.1 mph /  13 km/h 45 % 0.00 in /  0 mm
12:52 67.3 °F /  19.6 °C 46.4 °F /  8 °C 29.91 in /  1012.8 hPa North 6.3 mph /  10.1 km/h 10.4 mph /  16.7 km/h 47 % 0.00 in /  0 mm
12:57 67.5 °F /  19.7 °C 46.0 °F /  7.8 °C 29.91 in /  1012.8 hPa WSW 4.2 mph /  6.8 km/h 5.0 mph /  8 km/h 46 % 0.00 in /  0 mm
13:02 67.8 °F /  19.9 °C 46.3 °F /  7.9 °C 29.91 in /  1012.8 hPa SW 3.6 mph /  5.8 km/h 5.0 mph /  8 km/h 46 % 0.00 in /  0 mm
13:07 68.7 °F /  20.4 °C 45.9 °F /  7.7 °C 29.90 in /  1012.4 hPa SSE 5.0 mph /  8 km/h 6.9 mph /  11.1 km/h 44 % 0.00 in /  0 mm
13:12 68.3 °F /  20.2 °C 46.7 °F /  8.2 °C 29.90 in /  1012.4 hPa NNW 5.5 mph /  8.9 km/h 6.0 mph /  9.7 km/h 46 % 0.00 in /  0 mm
13:17 68.0 °F /  20 °C 46.4 °F /  8 °C 29.90 in /  1012.4 hPa NNW 0.9 mph /  1.4 km/h 2.3 mph /  3.7 km/h 46 % 0.00 in /  0 mm
13:22 68.1 °F /  20.1 °C 46.5 °F /  8.1 °C 29.90 in /  1012.4 hPa NNW 4.6 mph /  7.4 km/h 5.8 mph /  9.3 km/h 46 % 0.00 in /  0 mm
13:27 68.6 °F /  20.3 °C 46.4 °F /  8 °C 29.90 in /  1012.4 hPa SW 3.3 mph /  5.3 km/h 5.0 mph /  8 km/h 45 % 0.00 in /  0 mm
13:33 68.8 °F /  20.4 °C 46.6 °F /  8.1 °C 29.90 in /  1012.4 hPa SW 2.1 mph /  3.4 km/h 3.5 mph /  5.6 km/h 45 % 0.00 in /  0 mm
13:38 69.4 °F /  20.8 °C 45.9 °F /  7.7 °C 29.90 in /  1012.4 hPa West 2.3 mph /  3.7 km/h 8.1 mph /  13 km/h 43 % 0.00 in /  0 mm
13:43 69.2 °F /  20.7 °C 46.4 °F /  8 °C 29.90 in /  1012.4 hPa NW 3.8 mph /  6.1 km/h 10.4 mph /  16.7 km/h 44 % 0.00 in /  0 mm
13:48 69.0 °F /  20.6 °C 46.2 °F /  7.9 °C 29.90 in /  1012.4 hPa NW 2.5 mph /  4 km/h 3.5 mph /  5.6 km/h 44 % 0.00 in /  0 mm
13:53 68.9 °F /  20.5 °C 45.5 °F /  7.5 °C 29.90 in /  1012.4 hPa North 4.3 mph /  6.9 km/h 8.1 mph /  13 km/h 43 % 0.00 in /  0 mm
13:58 69.8 °F /  21 °C 46.9 °F /  8.3 °C 29.89 in /  1012.1 hPa WNW 6.7 mph /  10.8 km/h 10.4 mph /  16.7 km/h 44 % 0.00 in /  0 mm
14:03 71.1 °F /  21.7 °C 46.2 °F /  7.9 °C 29.89 in /  1012.1 hPa NNW 4.3 mph /  6.9 km/h 6.9 mph /  11.1 km/h 41 % 0.00 in /  0 mm
14:08 70.2 °F /  21.2 °C 46.0 °F /  7.8 °C 29.89 in /  1012.1 hPa WNW 8.0 mph /  12.9 km/h 10.4 mph /  16.7 km/h 42 % 0.00 in /  0 mm
14:13 70.0 °F /  21.1 °C 45.8 °F /  7.7 °C 29.89 in /  1012.1 hPa North 6.0 mph /  9.7 km/h 9.2 mph /  14.8 km/h 42 % 0.00 in /  0 mm
14:18 70.0 °F /  21.1 °C 45.8 °F /  7.7 °C 29.89 in /  1012.1 hPa North 6.1 mph /  9.8 km/h 9.2 mph /  14.8 km/h 42 % 0.00 in /  0 mm
14:23 70.2 °F /  21.2 °C 46.6 °F /  8.1 °C 29.89 in /  1012.1 hPa WSW 8.5 mph /  13.7 km/h 11.5 mph /  18.5 km/h 43 % 0.00 in /  0 mm
14:28 70.0 °F /  21.1 °C 46.5 °F /  8.1 °C 29.89 in /  1012.1 hPa West 6.4 mph /  10.3 km/h 10.4 mph /  16.7 km/h 43 % 0.00 in /  0 mm
14:33 69.8 °F /  21 °C 46.3 °F /  7.9 °C 29.89 in /  1012.1 hPa WNW 9.6 mph /  15.4 km/h 13.8 mph /  22.2 km/h 43 % 0.00 in /  0 mm
14:38 69.3 °F /  20.7 °C 46.4 °F /  8 °C 29.89 in /  1012.1 hPa North 9.8 mph /  15.8 km/h 12.7 mph /  20.4 km/h 44 % 0.00 in /  0 mm
14:43 69.2 °F /  20.7 °C 46.9 °F /  8.3 °C 29.89 in /  1012.1 hPa WSW 8.2 mph /  13.2 km/h 11.5 mph /  18.5 km/h 45 % 0.00 in /  0 mm
14:48 69.2 °F /  20.7 °C 46.9 °F /  8.3 °C 29.88 in /  1011.7 hPa WNW 10.5 mph /  16.9 km/h 13.8 mph /  22.2 km/h 45 % 0.00 in /  0 mm
14:53 69.0 °F /  20.6 °C 46.2 °F /  7.9 °C 29.88 in /  1011.7 hPa NW 5.3 mph /  8.5 km/h 9.2 mph /  14.8 km/h 44 % 0.00 in /  0 mm
14:58 68.9 °F /  20.5 °C 46.7 °F /  8.2 °C 29.88 in /  1011.7 hPa NNW 6.9 mph /  11.1 km/h 9.2 mph /  14.8 km/h 45 % 0.00 in /  0 mm
15:03 68.9 °F /  20.5 °C 46.7 °F /  8.2 °C 29.88 in /  1011.7 hPa NW 8.3 mph /  13.4 km/h 13.8 mph /  22.2 km/h 45 % 0.00 in /  0 mm
15:08 68.9 °F /  20.5 °C 47.3 °F /  8.5 °C 29.88 in /  1011.7 hPa NW 6.6 mph /  10.6 km/h 10.4 mph /  16.7 km/h 46 % 0.00 in /  0 mm
15:13 68.9 °F /  20.5 °C 47.3 °F /  8.5 °C 29.88 in /  1011.7 hPa West 8.8 mph /  14.2 km/h 12.7 mph /  20.4 km/h 46 % 0.00 in /  0 mm
15:18 69.2 °F /  20.7 °C 47.5 °F /  8.6 °C 29.88 in /  1011.7 hPa WNW 8.5 mph /  13.7 km/h 12.0 mph /  19.3 km/h 46 % 0.00 in /  0 mm
15:23 69.7 °F /  20.9 °C 48.0 °F /  8.9 °C 29.88 in /  1011.7 hPa West 7.6 mph /  12.2 km/h 11.5 mph /  18.5 km/h 46 % 0.00 in /  0 mm
15:28 69.6 °F /  20.9 °C 47.3 °F /  8.5 °C 29.88 in /  1011.7 hPa WNW 7.1 mph /  11.4 km/h 13.8 mph /  22.2 km/h 45 % 0.00 in /  0 mm
15:33 69.6 °F /  20.9 °C 47.9 °F /  8.8 °C 29.89 in /  1012.1 hPa North 6.4 mph /  10.3 km/h 11.0 mph /  17.7 km/h 46 % 0.00 in /  0 mm
15:38 69.3 °F /  20.7 °C 48.2 °F /  9 °C 29.88 in /  1011.7 hPa North 10.1 mph /  16.3 km/h 15.0 mph /  24.1 km/h 47 % 0.00 in /  0 mm
15:43 69.4 °F /  20.8 °C 48.9 °F /  9.4 °C 29.88 in /  1011.7 hPa WSW 5.6 mph /  9 km/h 9.0 mph /  14.5 km/h 48 % 0.00 in /  0 mm
15:48 69.8 °F /  21 °C 48.7 °F /  9.3 °C 29.88 in /  1011.7 hPa WNW 11.3 mph /  18.2 km/h 15.0 mph /  24.1 km/h 47 % 0.00 in /  0 mm
15:53 69.6 °F /  20.9 °C 48.5 °F /  9.2 °C 29.88 in /  1011.7 hPa West 6.8 mph /  10.9 km/h 11.5 mph /  18.5 km/h 47 % 0.00 in /  0 mm
15:58 69.7 °F /  20.9 °C 48.0 °F /  8.9 °C 29.88 in /  1011.7 hPa WNW 9.4 mph /  15.1 km/h 13.8 mph /  22.2 km/h 46 % 0.00 in /  0 mm
16:03 69.8 °F /  21 °C 48.1 °F /  8.9 °C 29.88 in /  1011.7 hPa WNW 11.2 mph /  18 km/h 13.0 mph /  20.9 km/h 46 % 0.00 in /  0 mm
16:08 69.4 °F /  20.8 °C 48.3 °F /  9.1 °C 29.88 in /  1011.7 hPa North 7.4 mph /  11.9 km/h 11.5 mph /  18.5 km/h 47 % 0.00 in /  0 mm
16:13 68.9 °F /  20.5 °C 47.8 °F /  8.8 °C 29.88 in /  1011.7 hPa WSW 10.0 mph /  16.1 km/h 14.0 mph /  22.5 km/h 47 % 0.00 in /  0 mm
16:18 68.6 °F /  20.3 °C 48.1 °F /  8.9 °C 29.88 in /  1011.7 hPa West 8.6 mph /  13.8 km/h 11.5 mph /  18.5 km/h 48 % 0.00 in /  0 mm
16:23 68.7 °F /  20.4 °C 48.2 °F /  9 °C 29.88 in /  1011.7 hPa West 9.2 mph /  14.8 km/h 11.5 mph /  18.5 km/h 48 % 0.00 in /  0 mm
16:28 68.5 °F /  20.3 °C 48.0 °F /  8.9 °C 29.87 in /  1011.4 hPa SW 6.0 mph /  9.7 km/h 8.1 mph /  13 km/h 48 % 0.00 in /  0 mm
16:33 68.3 °F /  20.2 °C 47.8 °F /  8.8 °C 29.87 in /  1011.4 hPa WSW 6.8 mph /  10.9 km/h 9.2 mph /  14.8 km/h 48 % 0.00 in /  0 mm
16:38 68.2 °F /  20.1 °C 48.3 °F /  9.1 °C 29.86 in /  1011.1 hPa North 5.1 mph /  8.2 km/h 7.0 mph /  11.3 km/h 49 % 0.00 in /  0 mm
16:43 68.8 °F /  20.4 °C 48.3 °F /  9.1 °C 29.87 in /  1011.4 hPa WNW 5.3 mph /  8.5 km/h 6.0 mph /  9.7 km/h 48 % 0.00 in /  0 mm
16:48 68.9 °F /  20.5 °C 48.4 °F /  9.1 °C 29.87 in /  1011.4 hPa NW 5.2 mph /  8.4 km/h 7.0 mph /  11.3 km/h 48 % 0.00 in /  0 mm
16:53 69.1 °F /  20.6 °C 48.0 °F /  8.9 °C 29.86 in /  1011.1 hPa WNW 7.5 mph /  12.1 km/h 9.2 mph /  14.8 km/h 47 % 0.00 in /  0 mm
16:58 69.4 °F /  20.8 °C 47.7 °F /  8.7 °C 29.86 in /  1011.1 hPa WSW 6.3 mph /  10.1 km/h 9.2 mph /  14.8 km/h 46 % 0.00 in /  0 mm
17:03 69.5 °F /  20.8 °C 47.8 °F /  8.8 °C 29.86 in /  1011.1 hPa WSW 7.1 mph /  11.4 km/h 9.0 mph /  14.5 km/h 46 % 0.00 in /  0 mm
17:08 69.6 °F /  20.9 °C 47.9 °F /  8.8 °C 29.86 in /  1011.1 hPa North 6.9 mph /  11.1 km/h 9.2 mph /  14.8 km/h 46 % 0.00 in /  0 mm
17:13 69.4 °F /  20.8 °C 47.7 °F /  8.7 °C 29.86 in /  1011.1 hPa West 9.5 mph /  15.3 km/h 15.0 mph /  24.1 km/h 46 % 0.00 in /  0 mm
17:18 69.3 °F /  20.7 °C 47.6 °F /  8.7 °C 29.86 in /  1011.1 hPa West 8.3 mph /  13.4 km/h 11.5 mph /  18.5 km/h 46 % 0.00 in /  0 mm
17:23 69.3 °F /  20.7 °C 47.6 °F /  8.7 °C 29.86 in /  1011.1 hPa WSW 7.2 mph /  11.6 km/h 10.4 mph /  16.7 km/h 46 % 0.00 in /  0 mm
17:28 69.3 °F /  20.7 °C 47.6 °F /  8.7 °C 29.86 in /  1011.1 hPa WNW 8.3 mph /  13.4 km/h 11.5 mph /  18.5 km/h 46 % 0.00 in /  0 mm
17:33 69.7 °F /  20.9 °C 48.6 °F /  9.2 °C 29.86 in /  1011.1 hPa North 9.7 mph /  15.6 km/h 12.7 mph /  20.4 km/h 47 % 0.00 in /  0 mm
17:38 69.9 °F /  21.1 °C 48.2 °F /  9 °C 29.85 in /  1010.7 hPa SW 5.3 mph /  8.5 km/h 7.0 mph /  11.3 km/h 46 % 0.00 in /  0 mm
17:43 69.4 °F /  20.8 °C 47.7 °F /  8.7 °C 29.85 in /  1010.7 hPa WNW 4.4 mph /  7.1 km/h 5.8 mph /  9.3 km/h 46 % 0.00 in /  0 mm
17:48 69.3 °F /  20.7 °C 48.2 °F /  9 °C 29.85 in /  1010.7 hPa WNW 3.9 mph /  6.3 km/h 5.8 mph /  9.3 km/h 47 % 0.00 in /  0 mm
17:53 69.5 °F /  20.8 °C 48.4 °F /  9.1 °C 29.86 in /  1011.1 hPa West 5.5 mph /  8.9 km/h 8.1 mph /  13 km/h 47 % 0.00 in /  0 mm
17:58 69.4 °F /  20.8 °C 48.3 °F /  9.1 °C 29.85 in /  1010.7 hPa SSW 7.7 mph /  12.4 km/h 11.5 mph /  18.5 km/h 47 % 0.00 in /  0 mm
18:03 69.6 °F /  20.9 °C 48.5 °F /  9.2 °C 29.85 in /  1010.7 hPa North 6.7 mph /  10.8 km/h 10.4 mph /  16.7 km/h 47 % 0.00 in /  0 mm
18:08 69.8 °F /  21 °C 48.7 °F /  9.3 °C 29.85 in /  1010.7 hPa WSW 6.4 mph /  10.3 km/h 9.2 mph /  14.8 km/h 47 % 0.00 in /  0 mm
18:13 69.9 °F /  21.1 °C 48.2 °F /  9 °C 29.85 in /  1010.7 hPa North 4.8 mph /  7.7 km/h 10.4 mph /  16.7 km/h 46 % 0.00 in /  0 mm
18:18 69.8 °F /  21 °C 48.1 °F /  8.9 °C 29.85 in /  1010.7 hPa SW 5.7 mph /  9.2 km/h 9.2 mph /  14.8 km/h 46 % 0.00 in /  0 mm
18:23 69.5 °F /  20.8 °C 48.4 °F /  9.1 °C 29.85 in /  1010.7 hPa West 7.6 mph /  12.2 km/h 10.4 mph /  16.7 km/h 47 % 0.00 in /  0 mm
18:28 69.6 °F /  20.9 °C 48.5 °F /  9.2 °C 29.85 in /  1010.7 hPa WSW 7.1 mph /  11.4 km/h 11.5 mph /  18.5 km/h 47 % 0.00 in /  0 mm
18:33 69.6 °F /  20.9 °C 48.5 °F /  9.2 °C 29.85 in /  1010.7 hPa WSW 9.3 mph /  15 km/h 11.5 mph /  18.5 km/h 47 % 0.00 in /  0 mm
18:38 69.6 °F /  20.9 °C 48.5 °F /  9.2 °C 29.85 in /  1010.7 hPa SW 8.2 mph /  13.2 km/h 11.0 mph /  17.7 km/h 47 % 0.00 in /  0 mm
18:43 69.4 °F /  20.8 °C 48.3 °F /  9.1 °C 29.85 in /  1010.7 hPa West 7.2 mph /  11.6 km/h 9.2 mph /  14.8 km/h 47 % 0.00 in /  0 mm
18:48 69.2 °F /  20.7 °C 48.7 °F /  9.3 °C 29.85 in /  1010.7 hPa West 7.0 mph /  11.3 km/h 11.0 mph /  17.7 km/h 48 % 0.00 in /  0 mm
18:53 69.0 °F /  20.6 °C 48.5 °F /  9.2 °C 29.85 in /  1010.7 hPa West 11.4 mph /  18.3 km/h 13.8 mph /  22.2 km/h 48 % 0.00 in /  0 mm
18:58 69.1 °F /  20.6 °C 49.1 °F /  9.5 °C 29.85 in /  1010.7 hPa West 4.6 mph /  7.4 km/h 9.2 mph /  14.8 km/h 49 % 0.00 in /  0 mm
19:03 69.2 °F /  20.7 °C 48.7 °F /  9.3 °C 29.85 in /  1010.7 hPa North 5.0 mph /  8 km/h 9.0 mph /  14.5 km/h 48 % 0.00 in /  0 mm
19:08 68.8 °F /  20.4 °C 48.9 °F /  9.4 °C 29.85 in /  1010.7 hPa SW 9.4 mph /  15.1 km/h 11.5 mph /  18.5 km/h 49 % 0.00 in /  0 mm
19:13 68.4 °F /  20.2 °C 49.0 °F /  9.4 °C 29.85 in /  1010.7 hPa WSW 5.4 mph /  8.7 km/h 8.1 mph /  13 km/h 50 % 0.00 in /  0 mm
19:18 68.2 °F /  20.1 °C 49.4 °F /  9.7 °C 29.86 in /  1011.1 hPa WSW 2.5 mph /  4 km/h 3.5 mph /  5.6 km/h 51 % 0.00 in /  0 mm
19:23 68.3 °F /  20.2 °C 49.5 °F /  9.7 °C 29.86 in /  1011.1 hPa SW 5.5 mph /  8.9 km/h 10.4 mph /  16.7 km/h 51 % 0.00 in /  0 mm
19:28 68.1 °F /  20.1 °C 49.3 °F /  9.6 °C 29.86 in /  1011.1 hPa SW 6.7 mph /  10.8 km/h 11.5 mph /  18.5 km/h 51 % 0.00 in /  0 mm
19:33 68.0 °F /  20 °C 49.2 °F /  9.6 °C 29.86 in /  1011.1 hPa North 5.3 mph /  8.5 km/h 6.9 mph /  11.1 km/h 51 % 0.00 in /  0 mm
19:38 67.9 °F /  19.9 °C 49.6 °F /  9.8 °C 29.86 in /  1011.1 hPa SW 7.8 mph /  12.6 km/h 9.2 mph /  14.8 km/h 52 % 0.00 in /  0 mm
19:40 67.8 °F /  19.9 °C 49.5 °F /  9.7 °C 29.86 in /  1011.1 hPa SW 2.6 mph /  4.2 km/h 4.0 mph /  6.4 km/h 52 % 0.00 in /  0 mm
19:45 67.9 °F /  19.9 °C 49.6 °F /  9.8 °C 29.86 in /  1011.1 hPa WSW 8.6 mph /  13.8 km/h 12.7 mph /  20.4 km/h 52 % 0.00 in /  0 mm
19:50 68.1 °F /  20.1 °C 49.3 °F /  9.6 °C 29.86 in /  1011.1 hPa WSW 3.8 mph /  6.1 km/h 6.9 mph /  11.1 km/h 51 % 0.00 in /  0 mm
19:55 68.4 °F /  20.2 °C 49.0 °F /  9.4 °C 29.86 in /  1011.1 hPa North 6.3 mph /  10.1 km/h 9.2 mph /  14.8 km/h 50 % 0.00 in /  0 mm
20:00 68.2 °F /  20.1 °C 49.4 °F /  9.7 °C 29.86 in /  1011.1 hPa WSW 3.8 mph /  6.1 km/h 5.8 mph /  9.3 km/h 51 % 0.00 in /  0 mm
20:05 67.9 °F /  19.9 °C 49.1 °F /  9.5 °C 29.86 in /  1011.1 hPa WSW 5.6 mph /  9 km/h 8.1 mph /  13 km/h 51 % 0.00 in /  0 mm
20:10 67.7 °F /  19.8 °C 49.4 °F /  9.7 °C 29.86 in /  1011.1 hPa WSW 3.7 mph /  6 km/h 6.9 mph /  11.1 km/h 52 % 0.00 in /  0 mm
20:15 67.5 °F /  19.7 °C 49.3 °F /  9.6 °C 29.87 in /  1011.4 hPa WSW 5.7 mph /  9.2 km/h 9.2 mph /  14.8 km/h 52 % 0.00 in /  0 mm
20:20 67.3 °F /  19.6 °C 49.6 °F /  9.8 °C 29.87 in /  1011.4 hPa North 7.5 mph /  12.1 km/h 11.5 mph /  18.5 km/h 53 % 0.00 in /  0 mm
20:25 67.1 °F /  19.5 °C 49.9 °F /  9.9 °C 29.87 in /  1011.4 hPa WSW 5.7 mph /  9.2 km/h 10.4 mph /  16.7 km/h 54 % 0.00 in /  0 mm
20:30 66.9 °F /  19.4 °C 50.2 °F /  10.1 °C 29.87 in /  1011.4 hPa West 6.7 mph /  10.8 km/h 10.0 mph /  16.1 km/h 55 % 0.00 in /  0 mm
20:35 66.7 °F /  19.3 °C 50.0 °F /  10 °C 29.87 in /  1011.4 hPa WSW 7.8 mph /  12.6 km/h 11.5 mph /  18.5 km/h 55 % 0.00 in /  0 mm
20:40 66.6 °F /  19.2 °C 49.9 °F /  9.9 °C 29.87 in /  1011.4 hPa North 4.8 mph /  7.7 km/h 8.1 mph /  13 km/h 55 % 0.00 in /  0 mm
20:45 66.4 °F /  19.1 °C 50.2 °F /  10.1 °C 29.87 in /  1011.4 hPa WSW 5.3 mph /  8.5 km/h 8.1 mph /  13 km/h 56 % 0.00 in /  0 mm
20:50 66.2 °F /  19 °C 50.5 °F /  10.3 °C 29.87 in /  1011.4 hPa North 3.7 mph /  6 km/h 5.8 mph /  9.3 km/h 57 % 0.00 in /  0 mm
20:55 65.9 °F /  18.8 °C 50.7 °F /  10.4 °C 29.87 in /  1011.4 hPa SW 7.5 mph /  12.1 km/h 10.4 mph /  16.7 km/h 58 % 0.00 in /  0 mm
21:00 65.7 °F /  18.7 °C 51.0 °F /  10.6 °C 29.87 in /  1011.4 hPa SW 2.6 mph /  4.2 km/h 4.6 mph /  7.4 km/h 59 % 0.00 in /  0 mm
21:05 65.3 °F /  18.5 °C 51.9 °F /  11.1 °C 29.87 in /  1011.4 hPa SSW 9.2 mph /  14.8 km/h 11.5 mph /  18.5 km/h 62 % 0.00 in /  0 mm
21:10 64.6 °F /  18.1 °C 52.6 °F /  11.4 °C 29.87 in /  1011.4 hPa SSW 5.3 mph /  8.5 km/h 8.1 mph /  13 km/h 65 % 0.00 in /  0 mm
21:15 63.9 °F /  17.7 °C 53.1 °F /  11.7 °C 29.88 in /  1011.7 hPa SSW 3.3 mph /  5.3 km/h 8.1 mph /  13 km/h 68 % 0.00 in /  0 mm
21:20 63.4 °F /  17.4 °C 53.0 °F /  11.7 °C 29.87 in /  1011.4 hPa SSW 6.3 mph /  10.1 km/h 8.1 mph /  13 km/h 69 % 0.00 in /  0 mm
21:25 63.0 °F /  17.2 °C 53.1 °F /  11.7 °C 29.88 in /  1011.7 hPa SSW 3.8 mph /  6.1 km/h 5.0 mph /  8 km/h 70 % 0.00 in /  0 mm
21:30 62.9 °F /  17.2 °C 53.4 °F /  11.9 °C 29.87 in /  1011.4 hPa SSW 4.1 mph /  6.6 km/h 5.8 mph /  9.3 km/h 71 % 0.00 in /  0 mm
21:35 62.7 °F /  17.1 °C 53.2 °F /  11.8 °C 29.87 in /  1011.4 hPa North 3.6 mph /  5.8 km/h 6.9 mph /  11.1 km/h 71 % 0.00 in /  0 mm
21:40 62.7 °F /  17.1 °C 53.2 °F /  11.8 °C 29.88 in /  1011.7 hPa SSW 4.6 mph /  7.4 km/h 5.8 mph /  9.3 km/h 71 % 0.00 in /  0 mm
21:45 62.8 °F /  17.1 °C 53.3 °F /  11.8 °C 29.88 in /  1011.7 hPa North 6.1 mph /  9.8 km/h 10.4 mph /  16.7 km/h 71 % 0.00 in /  0 mm
21:50 62.9 °F /  17.2 °C 53.4 °F /  11.9 °C 29.88 in /  1011.7 hPa South 6.1 mph /  9.8 km/h 10.4 mph /  16.7 km/h 71 % 0.00 in /  0 mm
21:55 62.9 °F /  17.2 °C 53.4 °F /  11.9 °C 29.88 in /  1011.7 hPa SW 4.7 mph /  7.6 km/h 10.4 mph /  16.7 km/h 71 % 0.00 in /  0 mm
22:00 62.9 °F /  17.2 °C 53.4 °F /  11.9 °C 29.88 in /  1011.7 hPa North 6.2 mph /  10 km/h 9.2 mph /  14.8 km/h 71 % 0.00 in /  0 mm
22:05 62.8 °F /  17.1 °C 52.9 °F /  11.6 °C 29.88 in /  1011.7 hPa SW 6.8 mph /  10.9 km/h 10.4 mph /  16.7 km/h 70 % 0.00 in /  0 mm
22:10 62.6 °F /  17 °C 52.7 °F /  11.5 °C 29.88 in /  1011.7 hPa SW 6.0 mph /  9.7 km/h 10.4 mph /  16.7 km/h 70 % 0.00 in /  0 mm
22:15 62.5 °F /  16.9 °C 52.6 °F /  11.4 °C 29.88 in /  1011.7 hPa WSW 10.5 mph /  16.9 km/h 16.1 mph /  25.9 km/h 70 % 0.00 in /  0 mm
22:20 62.5 °F /  16.9 °C 53.3 °F /  11.8 °C 29.89 in /  1012.1 hPa SW 6.9 mph /  11.1 km/h 10.4 mph /  16.7 km/h 72 % 0.00 in /  0 mm
22:25 62.5 °F /  16.9 °C 53.0 °F /  11.7 °C 29.89 in /  1012.1 hPa WSW 8.4 mph /  13.5 km/h 12.7 mph /  20.4 km/h 71 % 0.00 in /  0 mm
22:30 62.4 °F /  16.9 °C 52.9 °F /  11.6 °C 29.89 in /  1012.1 hPa SW 6.9 mph /  11.1 km/h 10.4 mph /  16.7 km/h 71 % 0.00 in /  0 mm
22:35 62.4 °F /  16.9 °C 53.3 °F /  11.8 °C 29.89 in /  1012.1 hPa WSW 6.7 mph /  10.8 km/h 6.9 mph /  11.1 km/h 72 % 0.00 in /  0 mm
22:40 62.2 °F /  16.8 °C 53.4 °F /  11.9 °C 29.89 in /  1012.1 hPa North 9.3 mph /  15 km/h 13.0 mph /  20.9 km/h 73 % 0.00 in /  0 mm
22:45 61.7 °F /  16.5 °C 53.7 °F /  12.1 °C 29.89 in /  1012.1 hPa SSW 6.7 mph /  10.8 km/h 11.5 mph /  18.5 km/h 75 % 0.00 in /  0 mm
22:50 61.2 °F /  16.2 °C 53.9 °F /  12.2 °C 29.89 in /  1012.1 hPa SW 6.2 mph /  10 km/h 13.8 mph /  22.2 km/h 77 % 0.00 in /  0 mm
22:55 60.5 °F /  15.8 °C 54.6 °F /  12.6 °C 29.89 in /  1012.1 hPa North 4.1 mph /  6.6 km/h 8.1 mph /  13 km/h 81 % 0.00 in /  0 mm
23:00 60.0 °F /  15.6 °C 54.5 °F /  12.5 °C 29.89 in /  1012.1 hPa WSW 1.9 mph /  3.1 km/h 3.5 mph /  5.6 km/h 82 % 0.00 in /  0 mm
23:05 59.8 °F /  15.4 °C 55.0 °F /  12.8 °C 29.89 in /  1012.1 hPa WSW 1.8 mph /  2.9 km/h 3.5 mph /  5.6 km/h 84 % 0.00 in /  0 mm
23:10 59.6 °F /  15.3 °C 54.8 °F /  12.7 °C 29.89 in /  1012.1 hPa SW 5.5 mph /  8.9 km/h 6.9 mph /  11.1 km/h 84 % 0.00 in /  0 mm
23:15 59.7 °F /  15.4 °C 54.9 °F /  12.7 °C 29.89 in /  1012.1 hPa North 4.0 mph /  6.4 km/h 5.8 mph /  9.3 km/h 84 % 0.00 in /  0 mm
23:20 59.7 °F /  15.4 °C 54.9 °F /  12.7 °C 29.89 in /  1012.1 hPa SW 3.5 mph /  5.6 km/h 4.6 mph /  7.4 km/h 84 % 0.00 in /  0 mm
23:26 59.7 °F /  15.4 °C 54.9 °F /  12.7 °C 29.89 in /  1012.1 hPa SW 2.9 mph /  4.7 km/h 4.6 mph /  7.4 km/h 84 % 0.00 in /  0 mm
23:30 59.7 °F /  15.4 °C 54.9 °F /  12.7 °C 29.88 in /  1011.7 hPa SW 2.4 mph /  3.9 km/h 3.5 mph /  5.6 km/h 84 % 0.00 in /  0 mm
23:36 59.7 °F /  15.4 °C 54.9 °F /  12.7 °C 29.88 in /  1011.7 hPa SW 4.1 mph /  6.6 km/h 6.0 mph /  9.7 km/h 84 % 0.00 in /  0 mm
23:40 59.7 °F /  15.4 °C 54.9 °F /  12.7 °C 29.88 in /  1011.7 hPa SW 3.0 mph /  4.8 km/h 3.5 mph /  5.6 km/h 84 % 0.00 in /  0 mm
23:45 59.7 °F /  15.4 °C 54.5 °F /  12.5 °C 29.88 in /  1011.7 hPa SW 4.1 mph /  6.6 km/h 5.8 mph /  9.3 km/h 83 % 0.00 in /  0 mm
23:51 59.7 °F /  15.4 °C 54.5 °F /  12.5 °C 29.88 in /  1011.7 hPa North 3.3 mph /  5.3 km/h 3.5 mph /  5.6 km/h 83 % 0.00 in /  0 mm
23:55 59.7 °F /  15.4 °C 54.5 °F /  12.5 °C 29.88 in /  1011.7 hPa North 3.3 mph /  5.3 km/h 5.8 mph /  9.3 km/h 83 % 0.00 in /  0 mm
Ararat Weather
Compliments of Weather Underground - 2 mb
Click here to send mail.


ABOUT

Live weather data from Ararat, Victoria, Australia, 3377
Data uploaded from Cumulus every 5 minutes to Weather Underground.
This site then downloads the raw data for formatting and display.
Metric and imperial data can be displayed. Graphs and historical data available.
Includes Sun and Moon times and rain image live from BOM.

Check out Ararat Weather on Facebook, Twitter and Google +

Help support ongoing costs by checking out the ads





Follow @AraratWeather